createdAt,value
2023-11-15T00:00:35.878Z,0.00
2023-11-15T00:01:35.890Z,0.00
2023-11-15T00:02:36.128Z,0.00
2023-11-15T00:03:36.002Z,0.00
2023-11-15T00:04:35.935Z,0.00
2023-11-15T00:05:36.003Z,0.00
2023-11-15T00:06:36.035Z,0.00
2023-11-15T00:07:35.980Z,0.00
2023-11-15T00:08:36.051Z,0.00
2023-11-15T00:09:36.020Z,0.00
2023-11-15T00:10:36.019Z,0.00
2023-11-15T00:11:36.063Z,0.00
2023-11-15T00:12:36.046Z,0.00
2023-11-15T00:13:36.066Z,0.00
2023-11-15T00:14:36.112Z,0.00
2023-11-15T00:15:36.129Z,0.00
2023-11-15T00:16:36.103Z,0.00
2023-11-15T00:17:36.155Z,0.00
2023-11-15T00:18:36.192Z,0.00
2023-11-15T00:19:36.150Z,0.00
2023-11-15T00:20:36.210Z,0.00
2023-11-15T00:21:36.178Z,0.00
2023-11-15T00:22:36.193Z,0.00
2023-11-15T00:23:36.242Z,0.00
2023-11-15T00:24:36.222Z,0.00
2023-11-15T00:25:36.236Z,0.00
2023-11-15T00:26:36.291Z,0.00
2023-11-15T00:27:36.270Z,0.00
2023-11-15T00:28:36.278Z,0.00
2023-11-15T00:29:36.313Z,0.00
2023-11-15T00:30:36.335Z,0.00
2023-11-15T00:31:36.323Z,0.00
2023-11-15T00:32:36.396Z,0.00
2023-11-15T00:33:36.407Z,0.00
2023-11-15T00:34:36.380Z,0.00
2023-11-15T00:35:36.566Z,0.00
2023-11-15T00:36:36.419Z,0.00
2023-11-15T00:37:36.409Z,0.00
2023-11-15T00:38:36.461Z,0.00
2023-11-15T00:39:36.459Z,0.00
2023-11-15T00:40:36.452Z,0.00
2023-11-15T00:41:36.497Z,0.00
2023-11-15T00:42:36.484Z,0.00
2023-11-15T00:43:36.511Z,0.00
2023-11-15T00:44:36.557Z,0.00
2023-11-15T00:45:36.545Z,0.00
2023-11-15T00:46:36.540Z,0.00
2023-11-15T00:47:36.618Z,0.00
2023-11-15T00:48:36.569Z,0.00
2023-11-15T00:49:36.596Z,0.00
2023-11-15T00:50:36.630Z,0.00
2023-11-15T00:51:36.612Z,0.00
2023-11-15T00:52:36.626Z,0.00
2023-11-15T00:53:36.705Z,0.00
2023-11-15T00:54:36.673Z,0.00
2023-11-15T00:55:36.677Z,0.00
2023-11-15T00:56:36.695Z,0.00
2023-11-15T00:57:36.706Z,0.00
2023-11-15T00:58:36.720Z,0.00
2023-11-15T00:59:36.747Z,0.00
2023-11-15T01:00:36.750Z,0.00
2023-11-15T01:01:36.759Z,0.00
2023-11-15T01:02:37.009Z,0.00
2023-11-15T01:03:36.901Z,0.00
2023-11-15T01:04:36.800Z,0.00
2023-11-15T01:05:36.857Z,0.00
2023-11-15T01:06:36.833Z,0.00
2023-11-15T01:07:36.844Z,0.00
2023-11-15T01:08:36.892Z,0.00
2023-11-15T01:09:36.875Z,0.00
2023-11-15T01:10:36.901Z,0.00
2023-11-15T01:11:36.943Z,0.00
2023-11-15T01:12:36.915Z,0.00
2023-11-15T01:13:36.932Z,0.00
2023-11-15T01:14:36.962Z,0.00
2023-11-15T01:15:36.960Z,0.00
2023-11-15T01:16:36.994Z,0.00
2023-11-15T01:17:37.076Z,0.00
2023-11-15T01:18:37.011Z,0.00
2023-11-15T01:19:37.021Z,0.00
2023-11-15T01:20:37.057Z,0.00
2023-11-15T01:21:37.048Z,0.00
2023-11-15T01:22:37.079Z,0.00
2023-11-15T01:23:37.097Z,0.00
2023-11-15T01:24:37.091Z,0.00
2023-11-15T01:25:37.115Z,0.00
2023-11-15T01:26:37.161Z,0.00
2023-11-15T01:27:37.134Z,0.00
2023-11-15T01:28:37.155Z,0.00
2023-11-15T01:29:37.199Z,0.00
2023-11-15T01:30:37.176Z,0.00
2023-11-15T01:31:37.199Z,0.00
2023-11-15T01:32:37.434Z,0.00
2023-11-15T01:33:37.291Z,0.00
2023-11-15T01:34:37.247Z,0.00
2023-11-15T01:35:37.367Z,0.00
2023-11-15T01:36:37.264Z,0.00
2023-11-15T01:37:37.315Z,0.00
2023-11-15T01:38:37.487Z,0.00
2023-11-15T01:39:37.320Z,0.00
2023-11-15T01:40:37.319Z,0.00
2023-11-15T01:41:37.375Z,0.00
2023-11-15T01:42:37.375Z,0.00
2023-11-15T01:43:37.362Z,0.00
2023-11-15T01:44:37.434Z,0.00
2023-11-15T01:45:37.402Z,0.00
2023-11-15T01:46:37.477Z,0.00
2023-11-15T01:47:37.475Z,0.00
2023-11-15T01:48:37.439Z,0.00
2023-11-15T01:49:37.466Z,0.00
2023-11-15T01:50:37.489Z,0.00
2023-11-15T01:51:37.488Z,0.00
2023-11-15T01:52:37.503Z,0.00
2023-11-15T01:53:37.517Z,0.00
2023-11-15T01:54:37.524Z,0.00
2023-11-15T01:55:37.539Z,0.00
2023-11-15T01:56:37.575Z,0.00
2023-11-15T01:57:37.569Z,0.00
2023-11-15T01:58:37.583Z,0.00
2023-11-15T01:59:37.614Z,0.00
2023-11-15T02:00:37.621Z,0.00
2023-11-15T02:01:37.640Z,0.00
2023-11-15T02:02:37.744Z,0.00
2023-11-15T02:03:37.747Z,0.00
2023-11-15T02:04:37.667Z,0.00
2023-11-15T02:05:37.718Z,0.00
2023-11-15T02:06:37.703Z,0.00
2023-11-15T02:07:37.712Z,0.00
2023-11-15T02:08:37.793Z,0.00
2023-11-15T02:09:37.759Z,0.00
2023-11-15T02:10:37.759Z,0.00
2023-11-15T02:11:37.820Z,0.00
2023-11-15T02:12:37.788Z,0.00
2023-11-15T02:13:37.803Z,0.00
2023-11-15T02:14:37.872Z,0.00
2023-11-15T02:15:37.833Z,0.00
2023-11-15T02:16:37.903Z,0.00
2023-11-15T02:17:37.924Z,0.00
2023-11-15T02:18:37.940Z,0.00
2023-11-15T02:19:37.887Z,0.00
2023-11-15T02:20:37.927Z,0.00
2023-11-15T02:21:37.913Z,0.00
2023-11-15T02:22:37.934Z,0.00
2023-11-15T02:23:37.975Z,0.00
2023-11-15T02:24:37.957Z,0.00
2023-11-15T02:25:37.972Z,0.00
2023-11-15T02:26:38.025Z,0.00
2023-11-15T02:27:38.004Z,0.00
2023-11-15T02:28:38.020Z,0.00
2023-11-15T02:29:38.059Z,0.00
2023-11-15T02:30:38.076Z,0.00
2023-11-15T02:31:38.064Z,0.00
2023-11-15T02:32:38.164Z,0.00
2023-11-15T02:33:38.135Z,0.00
2023-11-15T02:34:38.104Z,0.00
2023-11-15T02:35:38.150Z,0.00
2023-11-15T02:36:38.143Z,0.00
2023-11-15T02:37:38.154Z,0.00
2023-11-15T02:38:38.168Z,0.00
2023-11-15T02:39:38.175Z,0.00
2023-11-15T02:40:39.769Z,0.00
2023-11-15T02:41:38.259Z,0.00
2023-11-15T02:42:38.221Z,0.00
2023-11-15T02:43:38.270Z,0.00
2023-11-15T02:44:38.285Z,0.00
2023-11-15T02:45:38.275Z,0.00
2023-11-15T02:46:38.299Z,0.00
2023-11-15T02:47:38.390Z,0.00
2023-11-15T02:48:38.482Z,0.00
2023-11-15T02:49:38.330Z,0.00
2023-11-15T02:50:38.393Z,0.00
2023-11-15T02:51:38.356Z,0.00
2023-11-15T02:52:38.371Z,0.00
2023-11-15T02:53:38.409Z,0.00
2023-11-15T02:54:38.396Z,0.00
2023-11-15T02:55:38.422Z,0.00
2023-11-15T02:56:38.439Z,0.00
2023-11-15T02:57:38.441Z,0.00
2023-11-15T02:58:38.457Z,0.00
2023-11-15T02:59:38.545Z,0.00
2023-11-15T03:00:38.512Z,0.00
2023-11-15T03:01:38.523Z,0.00
2023-11-15T03:02:38.559Z,0.00
2023-11-15T03:03:38.625Z,0.00
2023-11-15T03:04:38.554Z,0.00
2023-11-15T03:05:38.678Z,0.00
2023-11-15T03:06:38.575Z,0.00
2023-11-15T03:07:38.582Z,0.00
2023-11-15T03:08:38.614Z,0.00
2023-11-15T03:09:38.623Z,0.00
2023-11-15T03:10:38.730Z,0.00
2023-11-15T03:11:38.673Z,0.00
2023-11-15T03:12:38.669Z,0.00
2023-11-15T03:13:38.671Z,0.00
2023-11-15T03:14:38.720Z,0.00
2023-11-15T03:15:38.707Z,0.00
2023-11-15T03:16:38.747Z,0.00
2023-11-15T03:17:38.787Z,0.00
2023-11-15T03:18:38.847Z,0.00
2023-11-15T03:19:38.757Z,0.00
2023-11-15T03:20:38.800Z,0.00
2023-11-15T03:21:38.796Z,0.00
2023-11-15T03:22:38.810Z,0.00
2023-11-15T03:23:38.821Z,0.00
2023-11-15T03:24:38.847Z,0.00
2023-11-15T03:25:38.878Z,0.00
2023-11-15T03:26:38.920Z,0.00
2023-11-15T03:27:38.874Z,0.00
2023-11-15T03:28:38.888Z,0.00
2023-11-15T03:29:39.012Z,0.00
2023-11-15T03:30:38.921Z,0.00
2023-11-15T03:31:38.931Z,0.00
2023-11-15T03:32:39.104Z,0.00
2023-11-15T03:33:39.063Z,0.00
2023-11-15T03:34:38.973Z,0.00
2023-11-15T03:35:39.015Z,0.00
2023-11-15T03:36:39.004Z,0.00
2023-11-15T03:37:39.019Z,0.00
2023-11-15T03:38:39.067Z,0.00
2023-11-15T03:39:39.086Z,0.00
2023-11-15T03:40:39.069Z,0.00
2023-11-15T03:41:39.130Z,0.00
2023-11-15T03:42:39.090Z,0.00
2023-11-15T03:43:39.101Z,0.00
2023-11-15T03:44:39.156Z,0.00
2023-11-15T03:45:39.141Z,0.00
2023-11-15T03:46:39.184Z,0.00
2023-11-15T03:47:39.227Z,0.00
2023-11-15T03:48:39.206Z,0.00
2023-11-15T03:49:39.204Z,0.00
2023-11-15T03:50:39.247Z,0.00
2023-11-15T03:51:39.227Z,0.00
2023-11-15T03:52:39.230Z,0.00
2023-11-15T03:53:39.294Z,0.00
2023-11-15T03:54:39.258Z,0.00
2023-11-15T03:55:39.294Z,0.00
2023-11-15T03:56:39.304Z,0.00
2023-11-15T03:57:39.302Z,0.00
2023-11-15T03:58:39.320Z,0.00
2023-11-15T03:59:39.462Z,0.00
2023-11-15T04:00:39.345Z,0.00
2023-11-15T04:01:48.671Z,0.00
2023-11-15T04:02:39.501Z,0.00
2023-11-15T04:03:39.648Z,0.00
2023-11-15T04:04:39.605Z,0.00
2023-11-15T04:05:39.540Z,0.00
2023-11-15T04:06:39.448Z,0.00
2023-11-15T04:07:39.445Z,0.00
2023-11-15T04:08:39.505Z,0.00
2023-11-15T04:09:39.476Z,0.00
2023-11-15T04:10:39.515Z,0.00
2023-11-15T04:11:39.505Z,0.00
2023-11-15T04:12:39.526Z,0.00
2023-11-15T04:13:39.534Z,0.00
2023-11-15T04:14:39.571Z,0.00
2023-11-15T04:15:39.585Z,0.00
2023-11-15T04:16:39.580Z,0.00
2023-11-15T04:17:39.669Z,0.00
2023-11-15T04:18:39.701Z,0.00
2023-11-15T04:19:39.650Z,0.00
2023-11-15T04:20:39.648Z,0.00
2023-11-15T04:21:39.639Z,0.00
2023-11-15T04:22:39.654Z,0.00
2023-11-15T04:23:39.686Z,0.00
2023-11-15T04:24:39.678Z,0.00
2023-11-15T04:25:39.696Z,0.00
2023-11-15T04:26:39.780Z,0.00
2023-11-15T04:27:39.733Z,0.00
2023-11-15T04:28:39.735Z,0.00
2023-11-15T04:29:39.776Z,0.00
2023-11-15T04:30:39.768Z,0.00
2023-11-15T04:31:39.819Z,0.00
2023-11-15T04:32:39.871Z,0.00
2023-11-15T04:33:39.837Z,0.00
2023-11-15T04:34:39.832Z,0.00
2023-11-15T04:35:39.872Z,0.00
2023-11-15T04:36:39.850Z,0.00
2023-11-15T04:37:39.869Z,0.00
2023-11-15T04:38:40.069Z,0.00
2023-11-15T04:39:39.894Z,0.00
2023-11-15T04:40:39.908Z,0.00
2023-11-15T04:41:39.975Z,0.00
2023-11-15T04:42:39.972Z,0.00
2023-11-15T04:43:39.949Z,0.00
2023-11-15T04:44:39.975Z,0.00
2023-11-15T04:45:40.037Z,0.00
2023-11-15T04:46:39.989Z,0.00
2023-11-15T04:47:40.090Z,0.00
2023-11-15T04:48:40.204Z,0.00
2023-11-15T04:49:40.031Z,0.00
2023-11-15T04:50:40.091Z,0.00
2023-11-15T04:51:40.055Z,0.00
2023-11-15T04:52:40.087Z,0.00
2023-11-15T04:53:40.099Z,0.00
2023-11-15T04:54:40.096Z,0.00
2023-11-15T04:55:40.104Z,0.00
2023-11-15T04:56:40.141Z,0.00
2023-11-15T04:57:40.134Z,0.00
2023-11-15T04:58:40.150Z,0.00
2023-11-15T04:59:40.174Z,0.00
2023-11-15T05:00:40.174Z,0.00
2023-11-15T05:01:40.234Z,0.00
2023-11-15T05:02:40.345Z,0.00
2023-11-15T05:03:40.335Z,0.00
2023-11-15T05:04:40.385Z,0.00
2023-11-15T05:05:40.417Z,0.00
2023-11-15T05:06:40.255Z,0.00
2023-11-15T05:07:40.271Z,0.00
2023-11-15T05:08:40.293Z,0.00
2023-11-15T05:09:40.295Z,0.00
2023-11-15T05:10:40.309Z,0.00
2023-11-15T05:11:40.374Z,0.00
2023-11-15T05:12:40.344Z,0.00
2023-11-15T05:13:40.354Z,0.00
2023-11-15T05:14:40.380Z,0.00
2023-11-15T05:15:40.375Z,0.00
2023-11-15T05:16:40.387Z,0.00
2023-11-15T05:17:40.441Z,0.00
2023-11-15T05:18:40.424Z,0.00
2023-11-15T05:19:40.422Z,0.00
2023-11-15T05:20:40.486Z,0.00
2023-11-15T05:21:40.452Z,0.00
2023-11-15T05:22:40.477Z,0.00
2023-11-15T05:23:41.073Z,0.00
2023-11-15T05:24:42.077Z,0.00
2023-11-15T05:25:40.506Z,0.00
2023-11-15T05:26:40.666Z,0.00
2023-11-15T05:27:40.529Z,0.00
2023-11-15T05:28:40.547Z,0.00
2023-11-15T05:29:40.596Z,0.00
2023-11-15T05:30:40.572Z,0.00
2023-11-15T05:31:40.604Z,0.00
2023-11-15T05:32:40.684Z,0.00
2023-11-15T05:33:40.628Z,0.00
2023-11-15T05:34:40.625Z,0.00
2023-11-15T05:35:40.667Z,0.00
2023-11-15T05:36:40.668Z,0.00
2023-11-15T05:37:40.691Z,0.00
2023-11-15T05:38:40.730Z,0.00
2023-11-15T05:39:40.699Z,0.00
2023-11-15T05:40:40.707Z,0.00
2023-11-15T05:41:40.742Z,0.00
2023-11-15T05:42:40.726Z,0.00
2023-11-15T05:43:40.742Z,0.00
2023-11-15T05:44:40.797Z,0.00
2023-11-15T05:45:40.765Z,0.00
2023-11-15T05:46:40.898Z,0.00
2023-11-15T05:47:40.842Z,0.00
2023-11-15T05:48:40.865Z,0.00
2023-11-15T05:49:40.833Z,0.00
2023-11-15T05:50:40.836Z,0.00
2023-11-15T05:51:40.844Z,0.00
2023-11-15T05:52:40.901Z,0.00
2023-11-15T05:53:40.890Z,0.00
2023-11-15T05:54:40.881Z,0.00
2023-11-15T05:55:40.893Z,0.00
2023-11-15T05:56:40.994Z,0.00
2023-11-15T05:57:40.925Z,0.00
2023-11-15T05:58:40.933Z,4.00
2023-11-15T05:59:40.949Z,4.00
2023-11-15T06:00:40.958Z,0.00
2023-11-15T06:01:41.007Z,4.00
2023-11-15T06:02:41.049Z,4.00
2023-11-15T06:03:41.092Z,4.00
2023-11-15T06:04:41.032Z,4.00
2023-11-15T06:05:41.065Z,8.00
2023-11-15T06:06:41.046Z,8.00
2023-11-15T06:07:41.056Z,12.00
2023-11-15T06:08:41.058Z,8.00
2023-11-15T06:09:41.074Z,12.00
2023-11-15T06:10:41.087Z,12.00
2023-11-15T06:11:41.141Z,12.00
2023-11-15T06:12:41.115Z,12.00
2023-11-15T06:13:41.130Z,16.00
2023-11-15T06:14:41.206Z,20.00
2023-11-15T06:15:41.150Z,28.00
2023-11-15T06:16:41.192Z,24.00
2023-11-15T06:17:41.523Z,36.00
2023-11-15T06:18:41.245Z,32.00
2023-11-15T06:19:42.108Z,36.00
2023-11-15T06:20:41.245Z,40.00
2023-11-15T06:21:41.253Z,40.00
2023-11-15T06:22:41.270Z,56.00
2023-11-15T06:23:41.282Z,56.00
2023-11-15T06:24:41.281Z,72.00
2023-11-15T06:25:44.767Z,76.00
2023-11-15T06:26:41.328Z,96.00
2023-11-15T06:27:41.304Z,104.00
2023-11-15T06:28:41.318Z,116.00
2023-11-15T06:29:41.361Z,124.00
2023-11-15T06:30:41.386Z,128.00
2023-11-15T06:31:41.353Z,140.00
2023-11-15T06:32:41.506Z,160.00
2023-11-15T06:33:41.562Z,152.00
2023-11-15T06:34:41.393Z,144.00
2023-11-15T06:35:41.439Z,172.00
2023-11-15T06:36:44.101Z,180.00
2023-11-15T06:37:41.438Z,180.00
2023-11-15T06:38:41.483Z,204.00
2023-11-15T06:39:41.457Z,188.00
2023-11-15T06:40:41.477Z,172.00
2023-11-15T06:41:41.584Z,216.00
2023-11-15T06:42:41.614Z,200.00
2023-11-15T06:43:41.526Z,216.00
2023-11-15T06:44:41.604Z,200.00
2023-11-15T06:45:41.655Z,200.00
2023-11-15T06:46:41.688Z,212.00
2023-11-15T06:47:41.735Z,204.00
2023-11-15T06:48:41.628Z,208.00
2023-11-15T06:49:41.694Z,236.00
2023-11-15T06:50:41.674Z,280.00
2023-11-15T06:51:41.742Z,272.00
2023-11-15T06:52:41.680Z,288.00
2023-11-15T06:53:41.819Z,292.00
2023-11-15T06:54:41.773Z,272.00
2023-11-15T06:55:41.738Z,364.00
2023-11-15T06:56:41.769Z,388.00
2023-11-15T06:57:41.717Z,496.00
2023-11-15T06:58:41.808Z,488.00
2023-11-15T06:59:41.757Z,560.00
2023-11-15T07:00:41.775Z,540.00
2023-11-15T07:01:41.781Z,532.00
2023-11-15T07:02:41.959Z,472.00
2023-11-15T07:03:42.094Z,528.00
2023-11-15T07:04:41.866Z,512.00
2023-11-15T07:05:41.841Z,508.00
2023-11-15T07:07:41.908Z,548.00
2023-11-15T07:08:41.917Z,540.00
2023-11-15T07:09:41.892Z,596.00
2023-11-15T07:10:41.881Z,544.00
2023-11-15T07:11:41.881Z,512.00
2023-11-15T07:12:41.907Z,588.00
2023-11-15T07:13:41.902Z,556.00
2023-11-15T07:14:41.915Z,492.00
2023-11-15T07:15:41.940Z,568.00
2023-11-15T07:16:41.929Z,608.00
2023-11-15T07:17:42.022Z,644.00
2023-11-15T07:18:42.032Z,652.00
2023-11-15T07:19:41.961Z,652.00
2023-11-15T07:20:42.002Z,776.00
2023-11-15T07:21:42.004Z,760.00
2023-11-15T07:22:42.008Z,696.00
2023-11-15T07:23:42.057Z,772.00
2023-11-15T07:24:42.495Z,1044.00
2023-11-15T07:25:42.053Z,1068.00
2023-11-15T07:26:42.128Z,964.00
2023-11-15T07:27:42.072Z,1236.00
2023-11-15T07:28:42.086Z,1256.00
2023-11-15T07:29:42.193Z,1272.00
2023-11-15T07:30:42.129Z,1300.00
2023-11-15T07:31:42.211Z,1268.00
2023-11-15T07:32:42.238Z,1496.00
2023-11-15T07:33:42.324Z,1408.00
2023-11-15T07:34:42.163Z,1304.00
2023-11-15T07:35:42.232Z,1164.00
2023-11-15T07:36:42.186Z,1160.00
2023-11-15T07:37:42.200Z,1632.00
2023-11-15T07:38:42.321Z,1860.00
2023-11-15T07:39:42.225Z,1780.00
2023-11-15T07:40:42.241Z,1716.00
2023-11-15T07:41:42.288Z,2008.00
2023-11-15T07:42:42.269Z,2048.00
2023-11-15T07:43:42.281Z,2172.00
2023-11-15T07:44:42.372Z,2012.00
2023-11-15T07:45:42.305Z,2016.00
2023-11-15T07:46:42.324Z,1908.00
2023-11-15T07:47:45.814Z,2064.00
2023-11-15T07:48:42.471Z,2188.00
2023-11-15T07:49:42.361Z,2128.00
2023-11-15T07:50:42.402Z,2332.00
2023-11-15T07:51:42.384Z,2480.00
2023-11-15T07:52:42.399Z,2628.00
2023-11-15T07:53:42.435Z,3076.00
2023-11-15T07:54:42.434Z,3092.00
2023-11-15T07:55:42.440Z,2868.00
2023-11-15T07:56:42.488Z,3180.00
2023-11-15T07:57:42.468Z,3256.00
2023-11-15T07:58:42.483Z,3176.00
2023-11-15T07:59:42.526Z,3184.00
2023-11-15T08:00:42.530Z,3004.00
2023-11-15T08:01:45.954Z,3272.00
2023-11-15T08:02:42.747Z,4148.00
2023-11-15T08:03:42.820Z,4524.00
2023-11-15T08:04:42.611Z,4012.00
2023-11-15T08:05:42.595Z,3540.00
2023-11-15T08:06:42.607Z,3192.00
2023-11-15T08:07:42.600Z,3172.00
2023-11-15T08:08:42.660Z,3436.00
2023-11-15T08:09:42.630Z,2932.00
2023-11-15T08:10:42.657Z,2852.00
2023-11-15T08:11:42.673Z,2908.00
2023-11-15T08:12:42.673Z,2700.00
2023-11-15T08:13:42.685Z,2500.00
2023-11-15T08:14:42.735Z,2568.00
2023-11-15T08:15:42.708Z,2720.00
2023-11-15T08:16:42.723Z,2888.00
2023-11-15T08:17:42.893Z,3216.00
2023-11-15T08:18:42.836Z,2744.00
2023-11-15T08:19:42.806Z,2680.00
2023-11-15T08:20:42.806Z,2376.00
2023-11-15T08:21:42.787Z,2184.00
2023-11-15T08:22:42.800Z,2424.00
2023-11-15T08:23:42.867Z,2688.00
2023-11-15T08:24:42.827Z,2912.00
2023-11-15T08:25:42.840Z,2628.00
2023-11-15T08:26:42.887Z,2292.00
2023-11-15T08:27:42.869Z,2164.00
2023-11-15T08:28:42.880Z,2296.00
2023-11-15T08:29:42.921Z,2444.00
2023-11-15T08:30:42.918Z,2804.00
2023-11-15T08:31:42.923Z,2844.00
2023-11-15T08:32:43.127Z,3220.00
2023-11-15T08:33:43.038Z,2836.00
2023-11-15T08:34:42.975Z,3032.00
2023-11-15T08:35:43.056Z,2964.00
2023-11-15T08:36:42.991Z,3864.00
2023-11-15T08:37:43.022Z,3752.00
2023-11-15T08:38:43.041Z,3800.00
2023-11-15T08:39:43.037Z,4136.00
2023-11-15T08:40:43.045Z,4408.00
2023-11-15T08:41:43.230Z,4136.00
2023-11-15T08:42:43.076Z,4468.00
2023-11-15T08:43:43.088Z,4660.00
2023-11-15T08:44:43.126Z,4044.00
2023-11-15T08:45:43.144Z,3608.00
2023-11-15T08:46:43.136Z,3512.00
2023-11-15T08:47:43.253Z,3508.00
2023-11-15T08:48:43.212Z,3532.00
2023-11-15T08:49:43.170Z,3772.00
2023-11-15T08:50:43.204Z,3424.00
2023-11-15T08:51:43.280Z,3560.00
2023-11-15T08:52:43.298Z,3460.00
2023-11-15T08:53:43.241Z,4004.00
2023-11-15T08:54:43.238Z,4216.00
2023-11-15T08:55:43.253Z,4272.00
2023-11-15T08:56:43.302Z,4492.00
2023-11-15T08:57:43.371Z,4680.00
2023-11-15T08:58:43.293Z,4928.00
2023-11-15T08:59:43.435Z,5048.00
2023-11-15T09:00:43.341Z,4892.00
2023-11-15T09:01:43.335Z,4348.00
2023-11-15T09:02:43.445Z,3996.00
2023-11-15T09:03:43.489Z,3536.00
2023-11-15T09:04:43.395Z,3308.00
2023-11-15T09:05:43.405Z,3112.00
2023-11-15T09:06:43.400Z,2968.00
2023-11-15T09:07:43.412Z,3356.00
2023-11-15T09:08:43.442Z,3620.00
2023-11-15T09:09:43.444Z,3756.00
2023-11-15T09:10:43.457Z,3852.00
2023-11-15T09:11:43.492Z,3516.00
2023-11-15T09:12:43.513Z,3476.00
2023-11-15T09:13:43.497Z,3900.00
2023-11-15T09:14:43.525Z,4032.00
2023-11-15T09:15:43.524Z,4456.00
2023-11-15T09:16:43.773Z,4660.00
2023-11-15T09:17:43.632Z,5200.00
2023-11-15T09:18:43.737Z,5832.00
2023-11-15T09:19:43.582Z,5760.00
2023-11-15T09:20:43.616Z,5332.00
2023-11-15T09:21:44.083Z,5624.00
2023-11-15T09:22:43.621Z,5576.00
2023-11-15T09:23:43.679Z,5320.00
2023-11-15T09:24:43.648Z,5368.00
2023-11-15T09:25:43.679Z,5428.00
2023-11-15T09:26:43.712Z,5304.00
2023-11-15T09:27:43.704Z,6104.00
2023-11-15T09:28:43.713Z,7668.00
2023-11-15T09:29:43.738Z,7712.00
2023-11-15T09:30:43.739Z,7596.00
2023-11-15T09:31:43.750Z,9600.00
2023-11-15T09:32:43.897Z,10588.00
2023-11-15T09:33:43.849Z,10652.00
2023-11-15T09:34:43.887Z,10080.00
2023-11-15T09:35:52.270Z,11284.00
2023-11-15T09:36:43.982Z,10764.00
2023-11-15T09:37:43.861Z,10544.00
2023-11-15T09:38:43.892Z,9876.00
2023-11-15T09:39:43.860Z,9240.00
2023-11-15T09:40:43.876Z,8608.00
2023-11-15T09:41:43.917Z,9064.00
2023-11-15T09:42:43.908Z,9788.00
2023-11-15T09:43:43.917Z,10540.00
2023-11-15T09:44:43.942Z,9308.00
2023-11-15T09:45:43.965Z,8700.00
2023-11-15T09:46:43.990Z,7200.00
2023-11-15T09:47:45.550Z,7612.00
2023-11-15T09:48:50.996Z,9084.00
2023-11-15T09:49:44.166Z,9116.00
2023-11-15T09:50:44.040Z,8032.00
2023-11-15T09:51:44.034Z,7236.00
2023-11-15T09:52:44.055Z,6736.00
2023-11-15T09:53:44.099Z,6324.00
2023-11-15T09:54:46.933Z,6944.00
2023-11-15T09:55:44.100Z,8572.00
2023-11-15T09:56:44.128Z,9120.00
2023-11-15T09:57:44.127Z,9324.00
2023-11-15T09:58:44.141Z,9428.00
2023-11-15T09:59:52.770Z,7168.00
2023-11-15T10:00:44.222Z,7148.00
2023-11-15T10:01:44.202Z,7020.00
2023-11-15T10:02:44.294Z,6072.00
2023-11-15T10:03:44.296Z,5732.00
2023-11-15T10:04:44.234Z,6672.00
2023-11-15T10:05:44.265Z,6404.00
2023-11-15T10:06:44.569Z,5844.00
2023-11-15T10:07:44.275Z,5284.00
2023-11-15T10:08:44.320Z,4888.00
2023-11-15T10:09:44.307Z,5140.00
2023-11-15T10:10:44.321Z,5184.00
2023-11-15T10:11:44.336Z,5652.00
2023-11-15T10:12:44.349Z,5876.00
2023-11-15T10:13:44.366Z,6232.00
2023-11-15T10:14:44.403Z,6696.00
2023-11-15T10:15:44.414Z,7308.00
2023-11-15T10:16:44.414Z,7676.00
2023-11-15T10:17:44.772Z,8016.00
2023-11-15T10:18:44.444Z,8832.00
2023-11-15T10:19:44.457Z,9172.00
2023-11-15T10:20:44.753Z,9264.00
2023-11-15T10:21:44.483Z,8788.00
2023-11-15T10:22:44.497Z,8296.00
2023-11-15T10:23:44.618Z,8124.00
2023-11-15T10:24:44.525Z,8604.00
2023-11-15T10:25:44.539Z,10192.00
2023-11-15T10:26:44.591Z,11940.00
2023-11-15T10:27:44.578Z,12324.00
2023-11-15T10:28:44.582Z,11476.00
2023-11-15T10:29:44.612Z,11360.00
2023-11-15T10:30:44.613Z,11288.00
2023-11-15T10:31:44.689Z,10504.00
2023-11-15T10:32:44.715Z,10016.00
2023-11-15T10:33:44.772Z,9228.00
2023-11-15T10:34:44.671Z,8268.00
2023-11-15T10:35:44.836Z,7544.00
2023-11-15T10:36:45.046Z,7264.00
2023-11-15T10:37:44.715Z,7000.00
2023-11-15T10:38:44.762Z,6500.00
2023-11-15T10:39:44.804Z,6248.00
2023-11-15T10:40:44.758Z,6816.00
2023-11-15T10:41:44.796Z,7968.00
2023-11-15T10:42:44.798Z,9448.00
2023-11-15T10:43:44.803Z,10012.00
2023-11-15T10:44:44.832Z,9240.00
2023-11-15T10:45:44.948Z,7468.00
2023-11-15T10:46:44.860Z,7984.00
2023-11-15T10:47:44.972Z,6956.00
2023-11-15T10:48:44.902Z,5668.00
2023-11-15T10:49:44.940Z,4968.00
2023-11-15T10:50:44.966Z,4352.00
2023-11-15T10:51:44.999Z,4860.00
2023-11-15T10:52:44.945Z,4488.00
2023-11-15T10:53:45.051Z,4772.00
2023-11-15T10:54:44.982Z,5132.00
2023-11-15T10:55:44.995Z,4720.00
2023-11-15T10:56:45.155Z,4128.00
2023-11-15T10:57:45.014Z,3796.00
2023-11-15T10:58:45.031Z,3528.00
2023-11-15T10:59:45.061Z,2980.00
2023-11-15T11:00:46.986Z,2496.00
2023-11-15T11:01:45.126Z,2372.00
2023-11-15T11:02:45.193Z,2716.00
2023-11-15T11:03:45.180Z,3424.00
2023-11-15T11:04:45.171Z,3528.00
2023-11-15T11:05:45.157Z,3240.00
2023-11-15T11:06:45.156Z,3040.00
2023-11-15T11:07:45.158Z,2876.00
2023-11-15T11:08:45.199Z,2820.00
2023-11-15T11:09:45.189Z,2960.00
2023-11-15T11:10:45.206Z,3360.00
2023-11-15T11:11:45.234Z,3788.00
2023-11-15T11:12:45.232Z,4404.00
2023-11-15T11:13:45.245Z,4524.00
2023-11-15T11:14:45.280Z,4536.00
2023-11-15T11:15:45.273Z,4404.00
2023-11-15T11:16:45.424Z,3672.00
2023-11-15T11:17:45.370Z,4076.00
2023-11-15T11:18:45.411Z,4200.00
2023-11-15T11:19:45.334Z,3936.00
2023-11-15T11:20:45.354Z,4504.00
2023-11-15T11:21:45.363Z,4788.00
2023-11-15T11:22:45.378Z,4760.00
2023-11-15T11:23:45.441Z,4204.00
2023-11-15T11:24:45.401Z,4404.00
2023-11-15T11:25:45.416Z,4808.00
2023-11-15T11:26:45.461Z,5132.00
2023-11-15T11:27:45.446Z,5480.00
2023-11-15T11:28:45.457Z,5920.00
2023-11-15T11:29:45.492Z,6096.00
2023-11-15T11:30:45.497Z,6336.00
2023-11-15T11:31:45.537Z,5664.00
2023-11-15T11:32:45.572Z,5152.00
2023-11-15T11:33:45.628Z,5304.00
2023-11-15T11:34:45.545Z,5468.00
2023-11-15T11:35:45.598Z,6040.00
2023-11-15T11:36:45.575Z,6264.00
2023-11-15T11:37:45.720Z,6292.00
2023-11-15T11:38:45.674Z,5604.00
2023-11-15T11:39:45.631Z,5428.00
2023-11-15T11:40:45.634Z,5784.00
2023-11-15T11:41:45.668Z,6064.00
2023-11-15T11:42:45.733Z,5648.00
2023-11-15T11:43:45.681Z,6116.00
2023-11-15T11:44:45.695Z,6356.00
2023-11-15T11:45:45.762Z,6416.00
2023-11-15T11:46:45.720Z,6536.00
2023-11-15T11:47:45.789Z,6684.00
2023-11-15T11:48:45.922Z,6620.00
2023-11-15T11:49:45.775Z,6244.00
2023-11-15T11:50:45.787Z,6036.00
2023-11-15T11:51:45.794Z,6080.00
2023-11-15T11:52:45.815Z,5956.00
2023-11-15T11:53:45.882Z,6020.00
2023-11-15T11:54:45.839Z,6040.00
2023-11-15T11:55:45.851Z,6404.00
2023-11-15T11:56:45.889Z,6304.00
2023-11-15T11:57:45.880Z,6052.00
2023-11-15T11:58:46.031Z,6112.00
2023-11-15T11:59:45.935Z,5568.00
2023-11-15T12:00:45.921Z,5040.00
2023-11-15T12:01:46.002Z,5660.00
2023-11-15T12:02:46.004Z,6480.00
2023-11-15T12:03:46.027Z,6196.00
2023-11-15T12:04:46.092Z,5668.00
2023-11-15T12:05:46.021Z,5456.00
2023-11-15T12:06:46.017Z,5620.00
2023-11-15T12:07:46.023Z,5552.00
2023-11-15T12:08:46.062Z,5600.00
2023-11-15T12:09:46.056Z,5808.00
2023-11-15T12:10:46.634Z,5928.00
2023-11-15T12:11:46.125Z,6716.00
2023-11-15T12:12:46.100Z,6912.00
2023-11-15T12:13:46.120Z,6924.00
2023-11-15T12:14:46.199Z,6768.00
2023-11-15T12:15:46.146Z,6592.00
2023-11-15T12:16:47.632Z,6540.00
2023-11-15T12:17:46.231Z,6028.00
2023-11-15T12:18:46.192Z,6468.00
2023-11-15T12:19:46.208Z,7408.00
2023-11-15T12:20:46.240Z,7252.00
2023-11-15T12:21:46.239Z,7296.00
2023-11-15T12:22:48.247Z,7440.00
2023-11-15T12:23:46.293Z,7140.00
2023-11-15T12:24:46.280Z,6664.00
2023-11-15T12:25:46.302Z,6444.00
2023-11-15T12:26:46.420Z,6552.00
2023-11-15T12:27:46.324Z,7324.00
2023-11-15T12:28:47.448Z,7836.00
2023-11-15T12:29:46.377Z,7940.00
2023-11-15T12:30:46.381Z,7708.00
2023-11-15T12:31:46.389Z,7372.00
2023-11-15T12:32:46.458Z,7240.00
2023-11-15T12:33:46.416Z,6760.00
2023-11-15T12:34:46.430Z,6964.00
2023-11-15T12:35:46.471Z,6872.00
2023-11-15T12:36:46.457Z,6384.00
2023-11-15T12:37:46.474Z,6816.00
2023-11-15T12:38:46.503Z,7156.00
2023-11-15T12:39:46.503Z,7468.00
2023-11-15T12:40:46.517Z,7352.00
2023-11-15T12:41:46.543Z,7616.00
2023-11-15T12:42:46.549Z,8060.00